sensor_id;sensor_type;location;lat;lon;timestamp;P1;durP1;ratioP1;P2;durP2;ratioP2
4672;SDS011;61885;53.560;9.940;2022-12-08T00:00:44;13.87;;;6.43;;
4672;SDS011;61885;53.560;9.940;2022-12-08T00:03:14;19.50;;;8.30;;
4672;SDS011;61885;53.560;9.940;2022-12-08T00:05:49;10.50;;;6.03;;
4672;SDS011;61885;53.560;9.940;2022-12-08T00:08:31;19.30;;;6.10;;
4672;SDS011;61885;53.560;9.940;2022-12-08T00:11:18;11.97;;;6.17;;
4672;SDS011;61885;53.560;9.940;2022-12-08T00:13:48;16.30;;;8.00;;
4672;SDS011;61885;53.560;9.940;2022-12-08T00:16:18;15.20;;;6.63;;
4672;SDS011;61885;53.560;9.940;2022-12-08T00:18:48;13.97;;;6.43;;
4672;SDS011;61885;53.560;9.940;2022-12-08T00:21:19;13.40;;;6.80;;
4672;SDS011;61885;53.560;9.940;2022-12-08T00:23:53;13.20;;;6.77;;
4672;SDS011;61885;53.560;9.940;2022-12-08T00:26:25;21.63;;;7.50;;
4672;SDS011;61885;53.560;9.940;2022-12-08T00:28:55;11.63;;;6.83;;
4672;SDS011;61885;53.560;9.940;2022-12-08T00:31:25;9.43;;;5.20;;
4672;SDS011;61885;53.560;9.940;2022-12-08T00:33:54;13.80;;;6.70;;
4672;SDS011;61885;53.560;9.940;2022-12-08T00:36:24;13.63;;;6.37;;
4672;SDS011;61885;53.560;9.940;2022-12-08T00:38:57;11.13;;;6.00;;
4672;SDS011;61885;53.560;9.940;2022-12-08T00:41:31;12.03;;;5.97;;
4672;SDS011;61885;53.560;9.940;2022-12-08T00:44:14;12.80;;;6.20;;
4672;SDS011;61885;53.560;9.940;2022-12-08T00:46:49;10.13;;;5.97;;
4672;SDS011;61885;53.560;9.940;2022-12-08T00:49:21;10.27;;;6.17;;
4672;SDS011;61885;53.560;9.940;2022-12-08T00:51:51;12.43;;;6.53;;
4672;SDS011;61885;53.560;9.940;2022-12-08T00:54:22;11.17;;;6.60;;
4672;SDS011;61885;53.560;9.940;2022-12-08T00:56:55;16.40;;;5.87;;
4672;SDS011;61885;53.560;9.940;2022-12-08T00:59:26;17.97;;;5.30;;
4672;SDS011;61885;53.560;9.940;2022-12-08T01:01:56;8.47;;;4.50;;
4672;SDS011;61885;53.560;9.940;2022-12-08T01:04:31;7.40;;;4.90;;
4672;SDS011;61885;53.560;9.940;2022-12-08T01:07:03;8.10;;;5.23;;
4672;SDS011;61885;53.560;9.940;2022-12-08T01:09:34;10.20;;;5.10;;
4672;SDS011;61885;53.560;9.940;2022-12-08T01:12:07;11.77;;;5.47;;
4672;SDS011;61885;53.560;9.940;2022-12-08T01:14:37;9.30;;;5.07;;
4672;SDS011;61885;53.560;9.940;2022-12-08T01:17:07;9.07;;;4.63;;
4672;SDS011;61885;53.560;9.940;2022-12-08T01:19:36;8.53;;;5.63;;
4672;SDS011;61885;53.560;9.940;2022-12-08T01:22:06;9.00;;;5.40;;
4672;SDS011;61885;53.560;9.940;2022-12-08T01:24:44;8.23;;;5.17;;
4672;SDS011;61885;53.560;9.940;2022-12-08T01:27:18;10.23;;;4.40;;
4672;SDS011;61885;53.560;9.940;2022-12-08T01:29:49;5.67;;;4.00;;
4672;SDS011;61885;53.560;9.940;2022-12-08T01:32:20;7.90;;;4.53;;
4672;SDS011;61885;53.560;9.940;2022-12-08T01:34:53;4.63;;;4.10;;
4672;SDS011;61885;53.560;9.940;2022-12-08T01:37:23;7.13;;;4.50;;
4672;SDS011;61885;53.560;9.940;2022-12-08T01:39:58;7.77;;;4.43;;
4672;SDS011;61885;53.560;9.940;2022-12-08T01:42:39;6.67;;;4.30;;
4672;SDS011;61885;53.560;9.940;2022-12-08T01:45:12;8.20;;;4.60;;
4672;SDS011;61885;53.560;9.940;2022-12-08T01:47:51;7.10;;;4.47;;
4672;SDS011;61885;53.560;9.940;2022-12-08T01:50:27;7.70;;;5.10;;
4672;SDS011;61885;53.560;9.940;2022-12-08T01:52:58;7.50;;;4.80;;
4672;SDS011;61885;53.560;9.940;2022-12-08T01:55:39;7.70;;;4.50;;
4672;SDS011;61885;53.560;9.940;2022-12-08T01:58:17;8.87;;;4.00;;
4672;SDS011;61885;53.560;9.940;2022-12-08T02:00:52;5.70;;;3.83;;
4672;SDS011;61885;53.560;9.940;2022-12-08T02:03:23;6.43;;;3.97;;
4672;SDS011;61885;53.560;9.940;2022-12-08T02:05:56;7.23;;;4.07;;
4672;SDS011;61885;53.560;9.940;2022-12-08T02:08:30;3.10;;;2.80;;
4672;SDS011;61885;53.560;9.940;2022-12-08T02:11:01;4.60;;;3.80;;
4672;SDS011;61885;53.560;9.940;2022-12-08T02:13:36;5.80;;;4.00;;
4672;SDS011;61885;53.560;9.940;2022-12-08T02:16:08;4.27;;;3.03;;
4672;SDS011;61885;53.560;9.940;2022-12-08T02:18:48;3.70;;;3.30;;
4672;SDS011;61885;53.560;9.940;2022-12-08T02:21:32;5.93;;;3.77;;
4672;SDS011;61885;53.560;9.940;2022-12-08T02:24:07;6.27;;;3.40;;
4672;SDS011;61885;53.560;9.940;2022-12-08T02:27:03;5.63;;;3.50;;
4672;SDS011;61885;53.560;9.940;2022-12-08T02:29:51;5.50;;;3.40;;
4672;SDS011;61885;53.560;9.940;2022-12-08T02:32:43;7.00;;;3.77;;
4672;SDS011;61885;53.560;9.940;2022-12-08T02:35:43;4.57;;;2.43;;
4672;SDS011;61885;53.560;9.940;2022-12-08T02:38:24;4.57;;;3.03;;
4672;SDS011;61885;53.560;9.940;2022-12-08T02:41:06;8.97;;;3.47;;
4672;SDS011;61885;53.560;9.940;2022-12-08T02:43:45;4.03;;;3.13;;
4672;SDS011;61885;53.560;9.940;2022-12-08T02:46:22;5.93;;;2.83;;
4672;SDS011;61885;53.560;9.940;2022-12-08T02:48:57;2.73;;;2.47;;
4672;SDS011;61885;53.560;9.940;2022-12-08T02:51:33;4.53;;;3.23;;
4672;SDS011;61885;53.560;9.940;2022-12-08T02:54:05;6.33;;;3.10;;
4672;SDS011;61885;53.560;9.940;2022-12-08T02:56:46;6.57;;;3.10;;
4672;SDS011;61885;53.560;9.940;2022-12-08T02:59:31;4.87;;;2.83;;
4672;SDS011;61885;53.560;9.940;2022-12-08T03:02:24;3.37;;;3.07;;
4672;SDS011;61885;53.560;9.940;2022-12-08T03:05:13;4.43;;;3.10;;
4672;SDS011;61885;53.560;9.940;2022-12-08T03:08:13;3.23;;;2.93;;
4672;SDS011;61885;53.560;9.940;2022-12-08T03:10:50;1.90;;;1.80;;
4672;SDS011;61885;53.560;9.940;2022-12-08T03:13:28;2.80;;;2.60;;
4672;SDS011;61885;53.560;9.940;2022-12-08T03:16:05;3.60;;;2.70;;
4672;SDS011;61885;53.560;9.940;2022-12-08T03:18:40;3.40;;;2.30;;
4672;SDS011;61885;53.560;9.940;2022-12-08T03:21:14;2.90;;;2.30;;
4672;SDS011;61885;53.560;9.940;2022-12-08T03:23:51;5.33;;;3.10;;
4672;SDS011;61885;53.560;9.940;2022-12-08T03:26:26;1.70;;;1.60;;
4672;SDS011;61885;53.560;9.940;2022-12-08T03:29:00;2.00;;;1.90;;
4672;SDS011;61885;53.560;9.940;2022-12-08T03:31:33;5.50;;;3.57;;
4672;SDS011;61885;53.560;9.940;2022-12-08T03:34:09;2.20;;;2.10;;
4672;SDS011;61885;53.560;9.940;2022-12-08T03:36:44;9.03;;;2.87;;
4672;SDS011;61885;53.560;9.940;2022-12-08T03:39:17;2.80;;;2.60;;
4672;SDS011;61885;53.560;9.940;2022-12-08T03:41:49;3.43;;;2.63;;
4672;SDS011;61885;53.560;9.940;2022-12-08T03:44:19;1.77;;;1.60;;
4672;SDS011;61885;53.560;9.940;2022-12-08T03:46:49;1.93;;;1.83;;
4672;SDS011;61885;53.560;9.940;2022-12-08T03:49:21;2.40;;;2.13;;
4672;SDS011;61885;53.560;9.940;2022-12-08T03:51:55;2.93;;;2.53;;
4672;SDS011;61885;53.560;9.940;2022-12-08T03:54:27;2.87;;;2.67;;
4672;SDS011;61885;53.560;9.940;2022-12-08T03:56:57;3.70;;;2.57;;
4672;SDS011;61885;53.560;9.940;2022-12-08T03:59:27;1.63;;;1.50;;
4672;SDS011;61885;53.560;9.940;2022-12-08T04:01:57;3.33;;;2.57;;
4672;SDS011;61885;53.560;9.940;2022-12-08T04:04:27;5.67;;;1.80;;
4672;SDS011;61885;53.560;9.940;2022-12-08T04:06:57;2.30;;;2.13;;
4672;SDS011;61885;53.560;9.940;2022-12-08T04:09:30;1.90;;;1.70;;
4672;SDS011;61885;53.560;9.940;2022-12-08T04:11:59;1.80;;;1.70;;
4672;SDS011;61885;53.560;9.940;2022-12-08T04:14:29;4.27;;;1.90;;
4672;SDS011;61885;53.560;9.940;2022-12-08T04:16:59;2.13;;;1.60;;
4672;SDS011;61885;53.560;9.940;2022-12-08T04:19:29;0.90;;;0.70;;
4672;SDS011;61885;53.560;9.940;2022-12-08T04:22:02;3.30;;;1.23;;
4672;SDS011;61885;53.560;9.940;2022-12-08T04:24:35;2.40;;;1.57;;
4672;SDS011;61885;53.560;9.940;2022-12-08T04:27:05;1.77;;;1.13;;
4672;SDS011;61885;53.560;9.940;2022-12-08T04:29:34;1.20;;;1.10;;
4672;SDS011;61885;53.560;9.940;2022-12-08T04:32:06;1.37;;;1.27;;
4672;SDS011;61885;53.560;9.940;2022-12-08T04:34:36;1.40;;;1.30;;
4672;SDS011;61885;53.560;9.940;2022-12-08T04:37:08;0.90;;;0.80;;
4672;SDS011;61885;53.560;9.940;2022-12-08T04:39:45;2.13;;;1.70;;
4672;SDS011;61885;53.560;9.940;2022-12-08T04:42:17;1.53;;;1.43;;
4672;SDS011;61885;53.560;9.940;2022-12-08T04:44:47;1.37;;;1.27;;
4672;SDS011;61885;53.560;9.940;2022-12-08T04:47:20;1.40;;;1.30;;
4672;SDS011;61885;53.560;9.940;2022-12-08T04:49:51;2.27;;;2.07;;
4672;SDS011;61885;53.560;9.940;2022-12-08T04:52:22;2.20;;;1.57;;
4672;SDS011;61885;53.560;9.940;2022-12-08T04:54:55;1.63;;;1.30;;
4672;SDS011;61885;53.560;9.940;2022-12-08T04:57:25;1.60;;;1.40;;
4672;SDS011;61885;53.560;9.940;2022-12-08T05:00:00;1.60;;;1.50;;
4672;SDS011;61885;53.560;9.940;2022-12-08T05:02:30;2.87;;;1.07;;
4672;SDS011;61885;53.560;9.940;2022-12-08T05:05:00;2.97;;;1.43;;
4672;SDS011;61885;53.560;9.940;2022-12-08T05:07:30;1.93;;;1.73;;
4672;SDS011;61885;53.560;9.940;2022-12-08T05:10:05;1.70;;;1.60;;
4672;SDS011;61885;53.560;9.940;2022-12-08T05:12:35;1.53;;;1.40;;
4672;SDS011;61885;53.560;9.940;2022-12-08T05:15:06;2.60;;;1.80;;
4672;SDS011;61885;53.560;9.940;2022-12-08T05:17:36;1.67;;;1.30;;
4672;SDS011;61885;53.560;9.940;2022-12-08T05:20:10;1.20;;;1.10;;
4672;SDS011;61885;53.560;9.940;2022-12-08T05:22:40;1.73;;;1.23;;
4672;SDS011;61885;53.560;9.940;2022-12-08T05:25:14;1.60;;;1.10;;
4672;SDS011;61885;53.560;9.940;2022-12-08T05:27:44;1.23;;;0.93;;
4672;SDS011;61885;53.560;9.940;2022-12-08T05:30:14;1.40;;;1.30;;
4672;SDS011;61885;53.560;9.940;2022-12-08T05:32:44;1.20;;;1.10;;
4672;SDS011;61885;53.560;9.940;2022-12-08T05:35:14;2.30;;;1.70;;
4672;SDS011;61885;53.560;9.940;2022-12-08T05:37:44;5.27;;;2.67;;
4672;SDS011;61885;53.560;9.940;2022-12-08T05:40:16;3.17;;;1.47;;
4672;SDS011;61885;53.560;9.940;2022-12-08T05:42:46;1.60;;;1.50;;
4672;SDS011;61885;53.560;9.940;2022-12-08T05:45:22;1.87;;;1.50;;
4672;SDS011;61885;53.560;9.940;2022-12-08T05:47:54;1.40;;;1.30;;
4672;SDS011;61885;53.560;9.940;2022-12-08T05:50:26;3.40;;;1.10;;
4672;SDS011;61885;53.560;9.940;2022-12-08T05:52:56;1.83;;;1.10;;
4672;SDS011;61885;53.560;9.940;2022-12-08T05:55:28;13.43;;;1.23;;
4672;SDS011;61885;53.560;9.940;2022-12-08T05:57:57;0.90;;;0.83;;
4672;SDS011;61885;53.560;9.940;2022-12-08T06:00:27;1.00;;;0.87;;
4672;SDS011;61885;53.560;9.940;2022-12-08T06:02:59;1.77;;;1.63;;
4672;SDS011;61885;53.560;9.940;2022-12-08T06:05:30;1.43;;;1.33;;
4672;SDS011;61885;53.560;9.940;2022-12-08T06:08:00;0.87;;;0.83;;
4672;SDS011;61885;53.560;9.940;2022-12-08T06:10:34;1.40;;;1.30;;
4672;SDS011;61885;53.560;9.940;2022-12-08T06:13:08;2.47;;;1.30;;
4672;SDS011;61885;53.560;9.940;2022-12-08T06:15:38;1.33;;;1.23;;
4672;SDS011;61885;53.560;9.940;2022-12-08T06:18:10;3.17;;;0.87;;
4672;SDS011;61885;53.560;9.940;2022-12-08T06:20:40;1.70;;;1.60;;
4672;SDS011;61885;53.560;9.940;2022-12-08T06:23:10;4.63;;;2.17;;
4672;SDS011;61885;53.560;9.940;2022-12-08T06:25:43;1.60;;;1.50;;
4672;SDS011;61885;53.560;9.940;2022-12-08T06:28:12;0.80;;;0.80;;
4672;SDS011;61885;53.560;9.940;2022-12-08T06:30:42;1.90;;;1.70;;
4672;SDS011;61885;53.560;9.940;2022-12-08T06:33:11;1.03;;;0.70;;
4672;SDS011;61885;53.560;9.940;2022-12-08T06:35:41;1.20;;;1.10;;
4672;SDS011;61885;53.560;9.940;2022-12-08T06:38:13;1.10;;;1.00;;
4672;SDS011;61885;53.560;9.940;2022-12-08T06:40:48;1.97;;;1.40;;
4672;SDS011;61885;53.560;9.940;2022-12-08T06:43:21;1.93;;;1.77;;
4672;SDS011;61885;53.560;9.940;2022-12-08T06:45:54;2.50;;;1.67;;
4672;SDS011;61885;53.560;9.940;2022-12-08T06:48:25;4.17;;;1.60;;
4672;SDS011;61885;53.560;9.940;2022-12-08T06:50:56;2.00;;;1.20;;
4672;SDS011;61885;53.560;9.940;2022-12-08T06:53:25;1.70;;;1.50;;
4672;SDS011;61885;53.560;9.940;2022-12-08T06:56:00;2.20;;;1.70;;
4672;SDS011;61885;53.560;9.940;2022-12-08T06:58:31;3.53;;;1.77;;
4672;SDS011;61885;53.560;9.940;2022-12-08T07:01:03;2.40;;;2.20;;
4672;SDS011;61885;53.560;9.940;2022-12-08T07:03:33;2.20;;;2.00;;
4672;SDS011;61885;53.560;9.940;2022-12-08T07:06:03;2.77;;;2.57;;
4672;SDS011;61885;53.560;9.940;2022-12-08T07:08:35;1.60;;;1.50;;
4672;SDS011;61885;53.560;9.940;2022-12-08T07:11:08;2.60;;;2.40;;
4672;SDS011;61885;53.560;9.940;2022-12-08T07:13:39;2.70;;;1.90;;
4672;SDS011;61885;53.560;9.940;2022-12-08T07:16:10;2.40;;;1.83;;
4672;SDS011;61885;53.560;9.940;2022-12-08T07:18:42;2.17;;;2.07;;
4672;SDS011;61885;53.560;9.940;2022-12-08T07:21:14;3.83;;;1.63;;
4672;SDS011;61885;53.560;9.940;2022-12-08T07:23:45;2.53;;;2.20;;
4672;SDS011;61885;53.560;9.940;2022-12-08T07:26:24;5.83;;;3.20;;
4672;SDS011;61885;53.560;9.940;2022-12-08T07:28:54;2.80;;;2.60;;
4672;SDS011;61885;53.560;9.940;2022-12-08T07:31:24;3.10;;;1.90;;
4672;SDS011;61885;53.560;9.940;2022-12-08T07:33:54;3.80;;;2.80;;
4672;SDS011;61885;53.560;9.940;2022-12-08T07:36:27;2.37;;;2.17;;
4672;SDS011;61885;53.560;9.940;2022-12-08T07:38:59;2.43;;;2.20;;
4672;SDS011;61885;53.560;9.940;2022-12-08T07:41:32;2.37;;;2.00;;
4672;SDS011;61885;53.560;9.940;2022-12-08T07:44:02;2.67;;;1.57;;
4672;SDS011;61885;53.560;9.940;2022-12-08T07:46:34;4.07;;;3.00;;
4672;SDS011;61885;53.560;9.940;2022-12-08T07:49:08;2.90;;;2.03;;
4672;SDS011;61885;53.560;9.940;2022-12-08T07:51:41;2.70;;;2.50;;
4672;SDS011;61885;53.560;9.940;2022-12-08T07:54:11;5.63;;;3.40;;
4672;SDS011;61885;53.560;9.940;2022-12-08T07:56:44;4.47;;;2.60;;
4672;SDS011;61885;53.560;9.940;2022-12-08T07:59:21;3.90;;;3.00;;
4672;SDS011;61885;53.560;9.940;2022-12-08T08:01:53;3.57;;;2.63;;
4672;SDS011;61885;53.560;9.940;2022-12-08T08:04:23;8.20;;;3.37;;
4672;SDS011;61885;53.560;9.940;2022-12-08T08:06:55;3.13;;;2.70;;
4672;SDS011;61885;53.560;9.940;2022-12-08T08:09:31;3.10;;;2.90;;
4672;SDS011;61885;53.560;9.940;2022-12-08T08:12:08;2.70;;;2.03;;
4672;SDS011;61885;53.560;9.940;2022-12-08T08:14:42;3.00;;;2.40;;
4672;SDS011;61885;53.560;9.940;2022-12-08T08:17:11;2.80;;;2.60;;
4672;SDS011;61885;53.560;9.940;2022-12-08T08:19:41;3.37;;;2.27;;
4672;SDS011;61885;53.560;9.940;2022-12-08T08:22:12;2.77;;;2.57;;
4672;SDS011;61885;53.560;9.940;2022-12-08T08:24:43;5.10;;;2.30;;
4672;SDS011;61885;53.560;9.940;2022-12-08T08:27:15;2.23;;;2.00;;
4672;SDS011;61885;53.560;9.940;2022-12-08T08:29:45;5.93;;;3.63;;
4672;SDS011;61885;53.560;9.940;2022-12-08T08:32:15;1.77;;;1.63;;
4672;SDS011;61885;53.560;9.940;2022-12-08T08:34:45;4.07;;;2.23;;
4672;SDS011;61885;53.560;9.940;2022-12-08T08:37:15;4.97;;;2.70;;
4672;SDS011;61885;53.560;9.940;2022-12-08T08:39:46;3.23;;;2.40;;
4672;SDS011;61885;53.560;9.940;2022-12-08T08:42:18;2.13;;;2.03;;
4672;SDS011;61885;53.560;9.940;2022-12-08T08:44:48;3.10;;;2.30;;
4672;SDS011;61885;53.560;9.940;2022-12-08T08:47:18;2.30;;;1.90;;
4672;SDS011;61885;53.560;9.940;2022-12-08T08:49:58;4.67;;;2.77;;
4672;SDS011;61885;53.560;9.940;2022-12-08T08:52:27;4.20;;;2.67;;
4672;SDS011;61885;53.560;9.940;2022-12-08T08:55:07;17.33;;;7.03;;
4672;SDS011;61885;53.560;9.940;2022-12-08T08:57:40;7.53;;;3.67;;
4672;SDS011;61885;53.560;9.940;2022-12-08T09:00:13;3.50;;;2.70;;
4672;SDS011;61885;53.560;9.940;2022-12-08T09:02:47;6.20;;;2.93;;
4672;SDS011;61885;53.560;9.940;2022-12-08T09:05:20;3.03;;;2.80;;
4672;SDS011;61885;53.560;9.940;2022-12-08T09:07:53;2.77;;;2.20;;
4672;SDS011;61885;53.560;9.940;2022-12-08T09:10:23;1.90;;;1.70;;
4672;SDS011;61885;53.560;9.940;2022-12-08T09:12:58;3.30;;;2.30;;
4672;SDS011;61885;53.560;9.940;2022-12-08T09:15:31;2.90;;;2.07;;
4672;SDS011;61885;53.560;9.940;2022-12-08T09:18:06;5.10;;;2.90;;
4672;SDS011;61885;53.560;9.940;2022-12-08T09:20:37;2.23;;;2.13;;
4672;SDS011;61885;53.560;9.940;2022-12-08T09:23:08;1.97;;;1.87;;
4672;SDS011;61885;53.560;9.940;2022-12-08T09:25:42;5.50;;;2.73;;
4672;SDS011;61885;53.560;9.940;2022-12-08T09:28:16;3.17;;;2.40;;
4672;SDS011;61885;53.560;9.940;2022-12-08T09:30:49;3.63;;;2.40;;
4672;SDS011;61885;53.560;9.940;2022-12-08T09:33:44;3.60;;;2.43;;
4672;SDS011;61885;53.560;9.940;2022-12-08T09:36:18;6.03;;;2.30;;
4672;SDS011;61885;53.560;9.940;2022-12-08T09:38:52;4.43;;;2.00;;
4672;SDS011;61885;53.560;9.940;2022-12-08T09:41:30;22.53;;;3.33;;
4672;SDS011;61885;53.560;9.940;2022-12-08T09:44:18;5.60;;;3.40;;
4672;SDS011;61885;53.560;9.940;2022-12-08T09:47:05;2.60;;;2.23;;
4672;SDS011;61885;53.560;9.940;2022-12-08T09:49:51;3.20;;;2.17;;
4672;SDS011;61885;53.560;9.940;2022-12-08T09:52:27;2.77;;;2.47;;
4672;SDS011;61885;53.560;9.940;2022-12-08T09:55:19;2.90;;;1.47;;
4672;SDS011;61885;53.560;9.940;2022-12-08T09:58:00;2.13;;;1.93;;
4672;SDS011;61885;53.560;9.940;2022-12-08T10:00:38;2.57;;;1.67;;
4672;SDS011;61885;53.560;9.940;2022-12-08T10:03:09;3.60;;;2.93;;
4672;SDS011;61885;53.560;9.940;2022-12-08T10:05:43;2.63;;;2.43;;
4672;SDS011;61885;53.560;9.940;2022-12-08T10:08:18;1.30;;;1.20;;
4672;SDS011;61885;53.560;9.940;2022-12-08T10:10:55;2.17;;;1.97;;
4672;SDS011;61885;53.560;9.940;2022-12-08T10:13:30;1.93;;;1.80;;
4672;SDS011;61885;53.560;9.940;2022-12-08T10:16:11;1.63;;;1.53;;
4672;SDS011;61885;53.560;9.940;2022-12-08T10:18:53;1.60;;;1.50;;
4672;SDS011;61885;53.560;9.940;2022-12-08T10:21:27;3.67;;;1.80;;
4672;SDS011;61885;53.560;9.940;2022-12-08T10:24:00;3.73;;;2.10;;
4672;SDS011;61885;53.560;9.940;2022-12-08T10:26:39;1.67;;;1.57;;
4672;SDS011;61885;53.560;9.940;2022-12-08T10:29:10;2.20;;;2.10;;
4672;SDS011;61885;53.560;9.940;2022-12-08T10:31:50;1.73;;;1.63;;
4672;SDS011;61885;53.560;9.940;2022-12-08T10:34:21;3.80;;;2.23;;
4672;SDS011;61885;53.560;9.940;2022-12-08T10:36:54;1.63;;;1.53;;
4672;SDS011;61885;53.560;9.940;2022-12-08T10:39:28;1.60;;;1.50;;
4672;SDS011;61885;53.560;9.940;2022-12-08T10:42:01;3.10;;;2.30;;
4672;SDS011;61885;53.560;9.940;2022-12-08T10:44:37;2.50;;;1.73;;
4672;SDS011;61885;53.560;9.940;2022-12-08T10:47:34;1.50;;;1.40;;
4672;SDS011;61885;53.560;9.940;2022-12-08T10:50:11;3.77;;;1.77;;
4672;SDS011;61885;53.560;9.940;2022-12-08T10:52:52;2.40;;;1.93;;
4672;SDS011;61885;53.560;9.940;2022-12-08T10:55:23;2.63;;;2.00;;
4672;SDS011;61885;53.560;9.940;2022-12-08T10:57:55;3.67;;;2.57;;
4672;SDS011;61885;53.560;9.940;2022-12-08T11:00:25;3.53;;;2.23;;
4672;SDS011;61885;53.560;9.940;2022-12-08T11:03:02;2.90;;;1.67;;
4672;SDS011;61885;53.560;9.940;2022-12-08T11:05:33;2.87;;;2.03;;
4672;SDS011;61885;53.560;9.940;2022-12-08T11:08:06;2.47;;;2.27;;
4672;SDS011;61885;53.560;9.940;2022-12-08T11:10:37;2.13;;;1.93;;
4672;SDS011;61885;53.560;9.940;2022-12-08T11:13:15;2.47;;;2.23;;
4672;SDS011;61885;53.560;9.940;2022-12-08T11:15:51;1.80;;;1.70;;
4672;SDS011;61885;53.560;9.940;2022-12-08T11:18:26;2.00;;;1.90;;
4672;SDS011;61885;53.560;9.940;2022-12-08T11:21:13;1.60;;;1.47;;
4672;SDS011;61885;53.560;9.940;2022-12-08T11:23:49;2.20;;;1.63;;
4672;SDS011;61885;53.560;9.940;2022-12-08T11:26:31;2.37;;;1.70;;
4672;SDS011;61885;53.560;9.940;2022-12-08T11:29:06;1.67;;;1.57;;
4672;SDS011;61885;53.560;9.940;2022-12-08T11:31:39;7.70;;;1.83;;
4672;SDS011;61885;53.560;9.940;2022-12-08T11:34:18;2.63;;;1.57;;
4672;SDS011;61885;53.560;9.940;2022-12-08T11:36:56;1.83;;;1.70;;
4672;SDS011;61885;53.560;9.940;2022-12-08T11:39:28;2.37;;;1.93;;
4672;SDS011;61885;53.560;9.940;2022-12-08T11:42:02;2.20;;;2.00;;
4672;SDS011;61885;53.560;9.940;2022-12-08T11:44:37;2.10;;;1.90;;
4672;SDS011;61885;53.560;9.940;2022-12-08T11:47:19;1.90;;;1.80;;
4672;SDS011;61885;53.560;9.940;2022-12-08T11:49:56;1.90;;;1.70;;
4672;SDS011;61885;53.560;9.940;2022-12-08T11:52:31;3.27;;;1.70;;
4672;SDS011;61885;53.560;9.940;2022-12-08T11:55:15;1.63;;;1.40;;
4672;SDS011;61885;53.560;9.940;2022-12-08T11:57:59;1.93;;;1.83;;
4672;SDS011;61885;53.560;9.940;2022-12-08T12:00:48;2.30;;;1.70;;
4672;SDS011;61885;53.560;9.940;2022-12-08T12:03:23;2.23;;;1.90;;
4672;SDS011;61885;53.560;9.940;2022-12-08T12:06:13;2.10;;;1.70;;
4672;SDS011;61885;53.560;9.940;2022-12-08T12:08:55;1.40;;;1.30;;
4672;SDS011;61885;53.560;9.940;2022-12-08T12:11:37;2.93;;;1.73;;
4672;SDS011;61885;53.560;9.940;2022-12-08T12:14:30;1.33;;;1.23;;
4672;SDS011;61885;53.560;9.940;2022-12-08T12:17:20;1.53;;;1.43;;
4672;SDS011;61885;53.560;9.940;2022-12-08T12:19:59;1.87;;;1.67;;
4672;SDS011;61885;53.560;9.940;2022-12-08T12:22:43;2.77;;;2.27;;
4672;SDS011;61885;53.560;9.940;2022-12-08T12:25:18;1.97;;;1.70;;
4672;SDS011;61885;53.560;9.940;2022-12-08T12:27:51;5.43;;;3.00;;
4672;SDS011;61885;53.560;9.940;2022-12-08T12:30:26;2.23;;;1.80;;
4672;SDS011;61885;53.560;9.940;2022-12-08T12:32:59;1.57;;;1.33;;
4672;SDS011;61885;53.560;9.940;2022-12-08T12:35:40;2.63;;;2.23;;
4672;SDS011;61885;53.560;9.940;2022-12-08T12:38:21;1.73;;;1.63;;
4672;SDS011;61885;53.560;9.940;2022-12-08T12:41:09;6.07;;;2.23;;
4672;SDS011;61885;53.560;9.940;2022-12-08T12:44:05;1.57;;;1.47;;
4672;SDS011;61885;53.560;9.940;2022-12-08T12:46:55;1.87;;;1.70;;
4672;SDS011;61885;53.560;9.940;2022-12-08T12:52:41;2.90;;;2.17;;
4672;SDS011;61885;53.560;9.940;2022-12-08T13:04:26;1.67;;;1.57;;
4672;SDS011;61885;53.560;9.940;2022-12-08T13:06:59;2.50;;;2.30;;
4672;SDS011;61885;53.560;9.940;2022-12-08T13:09:30;3.77;;;3.43;;
4672;SDS011;61885;53.560;9.940;2022-12-08T13:12:08;9.03;;;4.17;;
4672;SDS011;61885;53.560;9.940;2022-12-08T13:14:47;4.53;;;2.63;;
4672;SDS011;61885;53.560;9.940;2022-12-08T13:17:21;3.17;;;2.20;;
4672;SDS011;61885;53.560;9.940;2022-12-08T13:19:57;2.27;;;1.70;;
4672;SDS011;61885;53.560;9.940;2022-12-08T13:25:48;2.23;;;2.03;;
4672;SDS011;61885;53.560;9.940;2022-12-08T13:28:21;2.23;;;1.60;;
4672;SDS011;61885;53.560;9.940;2022-12-08T13:30:58;2.20;;;2.00;;
4672;SDS011;61885;53.560;9.940;2022-12-08T13:33:32;3.00;;;2.60;;
4672;SDS011;61885;53.560;9.940;2022-12-08T13:36:12;3.57;;;3.27;;
4672;SDS011;61885;53.560;9.940;2022-12-08T13:38:47;4.43;;;2.60;;
4672;SDS011;61885;53.560;9.940;2022-12-08T13:41:25;4.70;;;2.60;;
4672;SDS011;61885;53.560;9.940;2022-12-08T13:44:03;2.27;;;2.17;;
4672;SDS011;61885;53.560;9.940;2022-12-08T13:46:45;4.40;;;1.97;;
4672;SDS011;61885;53.560;9.940;2022-12-08T13:49:21;12.70;;;2.00;;
4672;SDS011;61885;53.560;9.940;2022-12-08T13:51:56;4.83;;;2.27;;
4672;SDS011;61885;53.560;9.940;2022-12-08T13:54:27;2.53;;;2.10;;
4672;SDS011;61885;53.560;9.940;2022-12-08T13:57:05;1.80;;;1.70;;
4672;SDS011;61885;53.560;9.940;2022-12-08T13:59:44;2.07;;;1.90;;
4672;SDS011;61885;53.560;9.940;2022-12-08T14:02:25;2.43;;;2.20;;
4672;SDS011;61885;53.560;9.940;2022-12-08T14:04:58;1.70;;;1.60;;
4672;SDS011;61885;53.560;9.940;2022-12-08T14:07:29;3.83;;;2.07;;
4672;SDS011;61885;53.560;9.940;2022-12-08T14:10:03;12.00;;;5.33;;
4672;SDS011;61885;53.560;9.940;2022-12-08T14:12:39;5.50;;;2.43;;
4672;SDS011;61885;53.560;9.940;2022-12-08T14:15:16;2.73;;;2.43;;
4672;SDS011;61885;53.560;9.940;2022-12-08T14:17:54;2.70;;;2.17;;
4672;SDS011;61885;53.560;9.940;2022-12-08T14:20:26;3.73;;;1.97;;
4672;SDS011;61885;53.560;9.940;2022-12-08T14:22:57;3.77;;;2.57;;
4672;SDS011;61885;53.560;9.940;2022-12-08T14:25:29;2.23;;;2.13;;
4672;SDS011;61885;53.560;9.940;2022-12-08T14:28:03;3.93;;;2.20;;
4672;SDS011;61885;53.560;9.940;2022-12-08T14:30:33;3.83;;;2.30;;
4672;SDS011;61885;53.560;9.940;2022-12-08T14:33:10;10.80;;;2.00;;
4672;SDS011;61885;53.560;9.940;2022-12-08T14:35:42;1.90;;;1.73;;
4672;SDS011;61885;53.560;9.940;2022-12-08T14:38:20;4.00;;;3.07;;
4672;SDS011;61885;53.560;9.940;2022-12-08T14:40:58;3.00;;;2.33;;
4672;SDS011;61885;53.560;9.940;2022-12-08T14:43:31;3.27;;;2.90;;
4672;SDS011;61885;53.560;9.940;2022-12-08T14:46:01;3.10;;;2.90;;
4672;SDS011;61885;53.560;9.940;2022-12-08T14:48:50;3.13;;;2.43;;
4672;SDS011;61885;53.560;9.940;2022-12-08T14:51:23;4.20;;;2.43;;
4672;SDS011;61885;53.560;9.940;2022-12-08T14:54:00;5.77;;;3.03;;
4672;SDS011;61885;53.560;9.940;2022-12-08T14:56:35;2.37;;;2.00;;
4672;SDS011;61885;53.560;9.940;2022-12-08T14:59:10;2.30;;;1.93;;
4672;SDS011;61885;53.560;9.940;2022-12-08T15:01:49;6.07;;;2.47;;
4672;SDS011;61885;53.560;9.940;2022-12-08T15:04:24;8.50;;;2.90;;
4672;SDS011;61885;53.560;9.940;2022-12-08T15:06:58;2.63;;;2.00;;
4672;SDS011;61885;53.560;9.940;2022-12-08T15:09:34;4.47;;;2.93;;
4672;SDS011;61885;53.560;9.940;2022-12-08T15:12:14;2.40;;;2.20;;
4672;SDS011;61885;53.560;9.940;2022-12-08T15:14:54;4.53;;;2.23;;
4672;SDS011;61885;53.560;9.940;2022-12-08T15:17:30;2.17;;;1.97;;
4672;SDS011;61885;53.560;9.940;2022-12-08T15:20:23;2.60;;;2.33;;
4672;SDS011;61885;53.560;9.940;2022-12-08T15:22:54;3.00;;;2.10;;
4672;SDS011;61885;53.560;9.940;2022-12-08T15:25:26;1.70;;;1.60;;
4672;SDS011;61885;53.560;9.940;2022-12-08T15:27:59;1.83;;;1.53;;
4672;SDS011;61885;53.560;9.940;2022-12-08T15:30:37;1.70;;;1.60;;
4672;SDS011;61885;53.560;9.940;2022-12-08T15:33:10;4.33;;;2.30;;
4672;SDS011;61885;53.560;9.940;2022-12-08T15:35:47;5.37;;;1.97;;
4672;SDS011;61885;53.560;9.940;2022-12-08T15:38:20;2.80;;;2.60;;
4672;SDS011;61885;53.560;9.940;2022-12-08T15:40:54;1.87;;;1.77;;
4672;SDS011;61885;53.560;9.940;2022-12-08T15:43:25;2.33;;;1.83;;
4672;SDS011;61885;53.560;9.940;2022-12-08T15:45:56;3.60;;;2.80;;
4672;SDS011;61885;53.560;9.940;2022-12-08T15:48:29;23.90;;;10.87;;
4672;SDS011;61885;53.560;9.940;2022-12-08T15:51:07;11.53;;;6.00;;
4672;SDS011;61885;53.560;9.940;2022-12-08T15:53:37;2.33;;;2.13;;
4672;SDS011;61885;53.560;9.940;2022-12-08T15:56:10;4.67;;;2.63;;
4672;SDS011;61885;53.560;9.940;2022-12-08T15:58:41;3.40;;;2.70;;
4672;SDS011;61885;53.560;9.940;2022-12-08T16:01:15;6.53;;;2.60;;